Station Historical Data
Daily Summary for November 8, 2017 Units:  English    Metric   Both
« Previous Day
Next Day »
Daily Weekly Monthly Yearly Custom
  High: Low: Average:
Temperature: 55.2 °F 44.1 °F 47.6 °F
Dew Point: 49.5 °F 29.9 °F 38 °F
Humidity: 87 % 50 % 70 %
Wind Speed: 21.0 mph 0.0 mph 3.2 mph
Wind Gust: 27.0 mph - -
Wind:- - SE
Pressure: 30.15 in 29.91 in -
Precipitation: 0.14 in    
Historical Graphs
 
 
Tabular Data for November 8, 2017
Time Temperature Dew Point Pressure Wind Wind Speed Wind Gust Humidity Rainfall Rate (Hourly) solar
00:00 44.1 °F 35.0 °F 30.15 in ESE 6.0 mph 15.0 mph 70 % 0.00 in 0.00 W/m2
00:05 44.1 °F 35.3 °F 30.15 in ESE 11.0 mph 13.0 mph 71 % 0.00 in 0.00 W/m2
00:10 44.1 °F 34.6 °F 30.15 in East 4.0 mph 13.0 mph 69 % 0.00 in 0.00 W/m2
00:15 44.1 °F 35.0 °F 30.15 in Calm     70 % 0.00 in 0.00 W/m2
00:20 44.2 °F 35.0 °F 30.15 in East 2.0 mph 6.0 mph 70 % 0.00 in 0.00 W/m2
00:25 44.2 °F 35.0 °F 30.15 in Calm     70 % 0.00 in 0.00 W/m2
00:30 44.1 °F 35.3 °F 30.15 in Calm   6.0 mph 71 % 0.00 in 0.00 W/m2
00:35 44.1 °F 34.6 °F 30.15 in ESE 1.0 mph 7.0 mph 69 % 0.00 in 0.00 W/m2
00:40 44.1 °F 34.6 °F 30.15 in ESE 4.0 mph 13.0 mph 69 % 0.00 in 0.00 W/m2
00:45 44.1 °F 34.6 °F 30.14 in East 6.0 mph 6.0 mph 69 % 0.00 in 0.00 W/m2
00:50 44.1 °F 34.6 °F 30.14 in Calm     69 % 0.00 in 0.00 W/m2
00:55 44.1 °F 35.0 °F 30.14 in ESE 4.0 mph 6.0 mph 70 % 0.00 in 0.00 W/m2
01:00 44.1 °F 34.6 °F 30.14 in ESE 4.0 mph 6.0 mph 69 % 0.00 in 0.00 W/m2
01:05 44.1 °F 34.2 °F 30.14 in Calm   7.0 mph 68 % 0.00 in 0.00 W/m2
01:10 44.2 °F 34.3 °F 30.13 in ESE 2.0 mph 8.0 mph 68 % 0.00 in 0.00 W/m2
01:15 44.3 °F 34.4 °F 30.13 in East 4.0 mph 8.0 mph 68 % 0.00 in 0.00 W/m2
01:20 44.4 °F 34.9 °F 30.13 in ESE 1.0 mph 9.0 mph 69 % 0.00 in 0.00 W/m2
01:25 44.4 °F 34.5 °F 30.13 in ESE 4.0 mph 4.0 mph 68 % 0.00 in 0.00 W/m2
01:30 44.5 °F 34.6 °F 30.13 in Calm   6.0 mph 68 % 0.00 in 0.00 W/m2
01:35 44.5 °F 34.2 °F 30.13 in ESE 1.0 mph 1.0 mph 67 % 0.00 in 0.00 W/m2
01:39 44.5 °F 34.2 °F 30.13 in Calm   6.0 mph 67 % 0.00 in 0.00 W/m2
01:44 44.5 °F 34.6 °F 30.13 in Calm   7.0 mph 68 % 0.00 in 0.00 W/m2
01:49 44.5 °F 35.0 °F 30.13 in Calm   6.0 mph 69 % 0.00 in 0.00 W/m2
01:54 44.4 °F 34.5 °F 30.13 in ESE 2.0 mph 5.0 mph 68 % 0.00 in 0.00 W/m2
01:59 44.3 °F 34.4 °F 30.12 in East 2.0 mph 9.0 mph 68 % 0.00 in 0.00 W/m2
02:04 44.3 °F 34.8 °F 30.11 in SE 4.0 mph 8.0 mph 69 % 0.00 in 0.00 W/m2
02:09 44.3 °F 34.4 °F 30.11 in ESE 1.0 mph 8.0 mph 68 % 0.00 in 0.00 W/m2
02:14 44.2 °F 34.3 °F 30.10 in ESE 2.0 mph 11.0 mph 68 % 0.00 in 0.00 W/m2
02:19 44.2 °F 33.6 °F 30.10 in East 9.0 mph 11.0 mph 66 % 0.00 in 0.00 W/m2
02:24 44.2 °F 33.6 °F 30.10 in ESE 2.0 mph 11.0 mph 66 % 0.00 in 0.00 W/m2
02:29 44.3 °F 34.0 °F 30.10 in Calm   11.0 mph 67 % 0.00 in 0.00 W/m2
02:39 44.3 °F 34.0 °F 30.09 in Calm   9.0 mph 67 % 0.00 in 0.00 W/m2
02:44 44.3 °F 34.0 °F 30.09 in SE 5.0 mph 13.0 mph 67 % 0.00 in 0.00 W/m2
02:49 44.4 °F 34.1 °F 30.09 in ESE 6.0 mph 9.0 mph 67 % 0.00 in 0.00 W/m2
02:54 44.3 °F 33.3 °F 30.09 in SE 2.0 mph 9.0 mph 65 % 0.00 in 0.00 W/m2
02:59 44.4 °F 33.4 °F 30.09 in SE 4.0 mph 8.0 mph 65 % 0.00 in 0.00 W/m2
03:04 44.4 °F 34.1 °F 30.09 in ESE 6.0 mph 11.0 mph 67 % 0.00 in 0.00 W/m2
03:09 44.4 °F 34.1 °F 30.09 in SE 5.0 mph 8.0 mph 67 % 0.00 in 0.00 W/m2
03:14 44.4 °F 33.8 °F 30.08 in Calm   7.0 mph 66 % 0.00 in 0.00 W/m2
03:19 44.4 °F 33.8 °F 30.08 in ESE 5.0 mph 8.0 mph 66 % 0.00 in 0.00 W/m2
03:24 44.4 °F 33.8 °F 30.08 in Calm   7.0 mph 66 % 0.00 in 0.00 W/m2
03:29 44.4 °F 33.8 °F 30.08 in SE 2.0 mph 9.0 mph 66 % 0.00 in 0.00 W/m2
03:34 44.4 °F 33.8 °F 30.08 in ESE 1.0 mph 8.0 mph 66 % 0.00 in 0.00 W/m2
03:39 44.5 °F 33.5 °F 30.08 in SE 1.0 mph 8.0 mph 65 % 0.00 in 0.00 W/m2
03:44 44.6 °F 33.6 °F 30.08 in ESE 2.0 mph 6.0 mph 65 % 0.00 in 0.00 W/m2
03:49 44.8 °F 33.4 °F 30.08 in ESE 5.0 mph 7.0 mph 64 % 0.00 in 0.00 W/m2
03:54 44.9 °F 33.5 °F 30.07 in SE 2.0 mph 6.0 mph 64 % 0.00 in 0.00 W/m2
03:59 45.1 °F 34.0 °F 30.07 in SE 1.0 mph 7.0 mph 65 % 0.00 in 0.00 W/m2
04:04 45.3 °F 33.5 °F 30.08 in SE 4.0 mph 9.0 mph 63 % 0.00 in 0.00 W/m2
04:09 45.5 °F 33.7 °F 30.07 in SE 5.0 mph 8.0 mph 63 % 0.00 in 0.00 W/m2
04:14 45.7 °F 34.2 °F 30.07 in SE 4.0 mph 9.0 mph 64 % 0.00 in 0.00 W/m2
04:19 45.8 °F 33.9 °F 30.07 in SE 2.0 mph 7.0 mph 63 % 0.00 in 0.00 W/m2
04:24 46.0 °F 34.1 °F 30.07 in Calm   7.0 mph 63 % 0.00 in 0.00 W/m2
04:29 46.1 °F 33.0 °F 30.07 in SE 1.0 mph 8.0 mph 60 % 0.00 in 0.00 W/m2
04:34 46.3 °F 32.8 °F 30.08 in Calm   8.0 mph 59 % 0.00 in 0.00 W/m2
04:39 46.4 °F 32.9 °F 30.08 in SE 1.0 mph 5.0 mph 59 % 0.00 in 0.00 W/m2
04:44 46.5 °F 34.2 °F 30.08 in Calm   5.0 mph 62 % 0.00 in 0.00 W/m2
04:49 46.7 °F 34.4 °F 30.08 in Calm   2.0 mph 62 % 0.00 in 0.00 W/m2
04:54 46.7 °F 34.4 °F 30.08 in Calm   4.0 mph 62 % 0.00 in 0.00 W/m2
05:00 46.9 °F 35.4 °F 30.08 in Calm     64 % 0.00 in 0.00 W/m2
05:05 46.9 °F 34.2 °F 30.08 in Calm     61 % 0.00 in 0.00 W/m2
05:10 46.9 °F 33.8 °F 30.08 in Calm     60 % 0.00 in 0.00 W/m2
05:15 47.0 °F 34.7 °F 30.08 in Calm     62 % 0.00 in 0.00 W/m2
05:20 47.0 °F 34.7 °F 30.08 in Calm     62 % 0.00 in 0.00 W/m2
05:25 47.1 °F 33.5 °F 30.08 in Calm     59 % 0.00 in 0.00 W/m2
05:30 47.2 °F 33.6 °F 30.09 in Calm     59 % 0.00 in 0.00 W/m2
05:35 47.2 °F 31.9 °F 30.09 in Calm     55 % 0.00 in 0.00 W/m2
05:40 47.2 °F 30.5 °F 30.09 in Calm     52 % 0.00 in 0.00 W/m2
05:45 47.3 °F 31.5 °F 30.09 in Calm     54 % 0.00 in 0.00 W/m2
05:50 47.4 °F 32.5 °F 30.09 in Calm     56 % 0.00 in 0.00 W/m2
05:55 47.4 °F 31.1 °F 30.09 in Calm     53 % 0.00 in 0.00 W/m2
06:00 47.6 °F 29.9 °F 30.09 in Calm     50 % 0.00 in 0.00 W/m2
06:05 47.6 °F 29.9 °F 30.09 in Calm     50 % 0.00 in 0.00 W/m2
06:10 47.7 °F 30.5 °F 30.09 in Calm     51 % 0.00 in 0.00 W/m2
06:15 47.8 °F 30.6 °F 30.09 in Calm     51 % 0.00 in 0.00 W/m2
06:20 47.9 °F 30.7 °F 30.09 in Calm     51 % 0.00 in 0.00 W/m2
06:25 47.9 °F 30.7 °F 30.09 in Calm     51 % 0.00 in 0.00 W/m2
06:30 47.9 °F 31.6 °F 30.10 in Calm     53 % 0.00 in 0.00 W/m2
06:35 48.0 °F 33.1 °F 30.10 in Calm     56 % 0.00 in 0.00 W/m2
06:40 47.9 °F 33.8 °F 30.10 in Calm     58 % 0.00 in 0.00 W/m2
06:45 47.9 °F 35.9 °F 30.10 in Calm     63 % 0.00 in 0.00 W/m2
06:50 47.8 °F 36.2 °F 30.10 in Calm     64 % 0.00 in 5.00 W/m2
06:55 47.7 °F 35.7 °F 30.10 in Calm     63 % 0.00 in 11.00 W/m2
07:00 47.6 °F 35.6 °F 30.10 in Calm     63 % 0.00 in 16.00 W/m2
07:05 47.6 °F 37.2 °F 30.10 in Calm     67 % 0.00 in 18.00 W/m2
07:10 47.5 °F 37.1 °F 30.10 in Calm     67 % 0.00 in 23.00 W/m2
07:15 47.5 °F 37.1 °F 30.10 in Calm     67 % 0.00 in 32.00 W/m2
07:20 47.4 °F 37.8 °F 30.11 in Calm     69 % 0.00 in 37.00 W/m2
07:25 47.4 °F 37.8 °F 30.11 in Calm     69 % 0.00 in 44.00 W/m2
07:30 47.4 °F 37.8 °F 30.11 in Calm     69 % 0.00 in 49.00 W/m2
07:35 47.5 °F 37.5 °F 30.12 in Calm     68 % 0.00 in 42.00 W/m2
07:40 47.5 °F 37.5 °F 30.12 in Calm     68 % 0.00 in 44.00 W/m2
07:45 47.5 °F 38.2 °F 30.12 in Calm     70 % 0.00 in 40.00 W/m2
07:50 47.6 °F 38.3 °F 30.12 in Calm     70 % 0.00 in 42.00 W/m2
08:00 47.8 °F 39.2 °F 30.12 in Calm     72 % 0.00 in 46.00 W/m2
08:05 47.9 °F 39.7 °F 30.12 in Calm     73 % 0.00 in 44.00 W/m2
08:10 47.9 °F 40.0 °F 30.12 in Calm     74 % 0.00 in 46.00 W/m2
08:15 48.0 °F 40.5 °F 30.12 in Calm   7.0 mph 75 % 0.00 in 46.00 W/m2
08:25 48.0 °F 39.8 °F 30.12 in Calm     73 % 0.00 in 65.00 W/m2
08:30 48.1 °F 40.2 °F 30.13 in Calm     74 % 0.00 in 35.00 W/m2
08:35 48.0 °F 39.4 °F 30.13 in Calm   7.0 mph 72 % 0.00 in 37.00 W/m2
08:45 47.4 °F 41.2 °F 30.12 in Calm     79 % 0.00 in 56.00 W/m2
08:50 47.1 °F 41.3 °F 30.12 in Calm     80 % 0.00 in 53.00 W/m2
08:55 46.9 °F 41.1 °F 30.12 in Calm     80 % 0.00 in 53.00 W/m2
09:00 46.9 °F 41.7 °F 30.12 in Calm     82 % 0.00 in 51.00 W/m2
09:05 46.8 °F 41.6 °F 30.12 in SE 5.0 mph 5.0 mph 82 % 0.00 in 70.00 W/m2
09:10 46.8 °F 41.9 °F 30.11 in SE 4.0 mph 5.0 mph 83 % 0.00 in 86.00 W/m2
09:15 46.9 °F 42.0 °F 30.11 in SE 5.0 mph 11.0 mph 83 % 0.00 in 107.00 W/m2
09:20 46.8 °F 41.3 °F 30.11 in SE 4.0 mph 8.0 mph 81 % 0.00 in 98.00 W/m2
09:25 46.9 °F 41.7 °F 30.11 in SE 4.0 mph 7.0 mph 82 % 0.00 in 102.00 W/m2
09:30 46.9 °F 41.4 °F 30.11 in SE 2.0 mph 6.0 mph 81 % 0.00 in 128.00 W/m2
09:35 47.0 °F 41.2 °F 30.11 in SE 1.0 mph 6.0 mph 80 % 0.00 in 163.00 W/m2
09:40 47.2 °F 41.4 °F 30.11 in SE 1.0 mph 8.0 mph 80 % 0.00 in 174.00 W/m2
09:45 47.3 °F 40.8 °F 30.11 in SE 7.0 mph 10.0 mph 78 % 0.00 in 153.00 W/m2
09:50 47.5 °F 40.3 °F 30.11 in SE 5.0 mph 8.0 mph 76 % 0.00 in 146.00 W/m2
09:55 47.7 °F 39.8 °F 30.11 in Calm   10.0 mph 74 % 0.00 in 132.00 W/m2
10:00 47.9 °F 39.7 °F 30.11 in Calm   8.0 mph 73 % 0.00 in 153.00 W/m2
10:05 48.3 °F 38.6 °F 30.11 in SSE 7.0 mph 13.0 mph 69 % 0.00 in 178.00 W/m2
10:10 48.6 °F 38.9 °F 30.11 in SSE 5.0 mph 10.0 mph 69 % 0.00 in 144.00 W/m2
10:15 48.9 °F 38.4 °F 30.11 in SSE 5.0 mph 9.0 mph 67 % 0.00 in 160.00 W/m2
10:20 49.2 °F 38.7 °F 30.11 in SSE 1.0 mph 9.0 mph 67 % 0.00 in 167.00 W/m2
10:25 49.5 °F 39.0 °F 30.10 in SE 1.0 mph 8.0 mph 67 % 0.00 in 156.00 W/m2
10:30 49.8 °F 38.9 °F 30.10 in SSE 2.0 mph 4.0 mph 66 % 0.00 in 127.00 W/m2
10:35 50.1 °F 39.6 °F 30.10 in SSE 6.0 mph 9.0 mph 67 % 0.00 in 105.00 W/m2
10:40 50.3 °F 39.0 °F 30.10 in SSE 5.0 mph 11.0 mph 65 % 0.00 in 109.00 W/m2
21:57 55.2 °F 49.2 °F 29.93 in South 13.0 mph 22.0 mph 80 % 0.00 in 0.00 W/m2
21:58 55.2 °F 49.2 °F 29.93 in South 12.0 mph 22.0 mph 80 % 0.00 in 0.00 W/m2
21:59 55.2 °F 49.2 °F 29.93 in SSE 12.0 mph 22.0 mph 80 % 0.00 in 0.00 W/m2
22:04 55.1 °F 49.0 °F 29.93 in South 19.0 mph 21.0 mph 80 % 0.00 in 0.00 W/m2
22:09 55.0 °F 49.0 °F 29.93 in South 17.0 mph 26.0 mph 80 % 0.00 in 0.00 W/m2
22:15 54.9 °F 48.9 °F 29.92 in SSE 16.0 mph 24.0 mph 80 % 0.00 in 0.00 W/m2
22:20 54.8 °F 48.8 °F 29.92 in South 6.0 mph 20.0 mph 80 % 0.00 in 0.00 W/m2
22:25 54.8 °F 48.8 °F 29.92 in SSE 12.0 mph 25.0 mph 80 % 0.00 in 0.00 W/m2
22:30 54.7 °F 48.7 °F 29.92 in South 15.0 mph 27.0 mph 80 % 0.00 in 0.00 W/m2
22:35 54.6 °F 48.6 °F 29.92 in SSW 7.0 mph 24.0 mph 80 % 0.00 in 0.00 W/m2
22:40 54.6 °F 48.6 °F 29.92 in SSW 11.0 mph 23.0 mph 80 % 0.00 in 0.00 W/m2
22:45 54.6 °F 49.2 °F 29.92 in South 21.0 mph 27.0 mph 82 % 0.00 in 0.00 W/m2
22:50 54.5 °F 49.1 °F 29.92 in South 14.0 mph 24.0 mph 82 % 0.00 in 0.00 W/m2
22:55 54.4 °F 49.0 °F 29.92 in SE 2.0 mph 22.0 mph 82 % 0.00 in 0.00 W/m2
23:00 54.2 °F 48.8 °F 29.92 in SSE 14.0 mph 24.0 mph 82 % 0.00 in 0.00 W/m2
23:05 54.2 °F 48.8 °F 29.92 in South 4.0 mph 22.0 mph 82 % 0.00 in 0.00 W/m2
23:10 54.2 °F 49.2 °F 29.92 in SW 6.0 mph 23.0 mph 83 % 0.00 in 0.00 W/m2
23:15 54.0 °F 49.0 °F 29.91 in SSE 9.0 mph 20.0 mph 83 % 0.00 in 0.00 W/m2
23:20 54.0 °F 49.3 °F 29.93 in SSW 9.0 mph 23.0 mph 84 % 0.00 in 0.00 W/m2
23:25 53.9 °F 49.5 °F 29.93 in SSW 8.0 mph 17.0 mph 85 % 0.19 in 0.00 W/m2
23:30 53.6 °F 49.2 °F 29.93 in South 9.0 mph 14.0 mph 85 % 0.19 in 0.00 W/m2
23:35 53.3 °F 48.9 °F 29.92 in South 12.0 mph 18.0 mph 85 % 0.25 in 0.00 W/m2
23:40 53.0 °F 48.9 °F 29.93 in South 5.0 mph 15.0 mph 86 % 0.17 in 0.00 W/m2
23:45 52.8 °F 48.7 °F 29.93 in SSW 9.0 mph 13.0 mph 86 % 0.34 in 0.00 W/m2
23:50 52.5 °F 48.8 °F 29.93 in SSW 6.0 mph 14.0 mph 87 % 0.31 in 0.00 W/m2
23:55 52.3 °F 48.5 °F 29.94 in SSW 7.0 mph 18.0 mph 87 % 0.27 in 0.00 W/m2
Juneau County Weather
Compliments of Weather Underground - 3.75 mb
 WU-history PHP script courtesy of   Juneau County Weather.
powered by Cumulus v1.9.3 (1059)
Ambient Weather VWS v14.00
Top Contact Website Map Copyright © 2007 - 2018 Foresthillweather.com Never base important decisions on this or any weather information obtained from the Internet